createdAt,value
2023-01-12T00:02:06.661Z,27.00
2023-01-12T00:05:09.832Z,25.87
2023-01-12T00:08:12.140Z,27.52
2023-01-12T00:11:15.208Z,25.98
2023-01-12T00:14:17.580Z,26.17
2023-01-12T00:17:19.841Z,25.85
2023-01-12T00:20:22.098Z,25.53
2023-01-12T00:23:26.176Z,26.08
2023-01-12T00:26:28.494Z,26.30
2023-01-12T00:29:30.682Z,26.25
2023-01-12T00:32:32.878Z,25.17
2023-01-12T00:35:38.151Z,24.37
2023-01-12T00:38:40.464Z,25.00
2023-01-12T00:42:02.189Z,23.60
2023-01-12T00:45:22.818Z,24.17
2023-01-12T00:48:25.122Z,23.70
2023-01-12T00:51:27.351Z,24.53
2023-01-12T00:54:29.858Z,24.08
2023-01-12T00:57:32.167Z,24.23
2023-01-12T01:00:34.438Z,25.38
2023-01-12T01:03:36.643Z,27.15
2023-01-12T01:06:39.052Z,24.73
2023-01-12T01:09:41.266Z,29.20
2023-01-12T01:12:43.493Z,31.67
2023-01-12T01:15:45.742Z,32.70
2023-01-12T01:18:48.163Z,36.25
2023-01-12T01:21:50.432Z,37.40
2023-01-12T01:24:52.687Z,40.80
2023-01-12T01:27:54.996Z,42.58
2023-01-12T01:31:02.901Z,42.97
2023-01-12T01:34:05.179Z,44.20
2023-01-12T01:37:07.651Z,40.53
2023-01-12T01:40:10.209Z,40.90
2023-01-12T01:43:16.596Z,43.30
2023-01-12T01:46:27.531Z,41.72
2023-01-12T01:49:45.409Z,42.22
2023-01-12T01:52:53.788Z,39.67
2023-01-12T01:56:02.774Z,42.33
2023-01-12T01:59:10.258Z,41.17
2023-01-12T02:02:12.663Z,42.13
2023-01-12T02:05:18.787Z,40.78
2023-01-12T02:08:39.836Z,39.40
2023-01-12T02:12:01.202Z,37.60
2023-01-12T02:15:22.719Z,39.50
2023-01-12T02:18:40.387Z,39.58
2023-01-12T02:21:54.820Z,38.13
2023-01-12T02:25:06.159Z,37.47
2023-01-12T02:28:17.587Z,38.33
2023-01-12T02:31:23.556Z,37.92
2023-01-12T02:34:44.568Z,38.65
2023-01-12T02:37:56.021Z,41.08
2023-01-12T02:41:16.841Z,39.03
2023-01-12T02:44:38.838Z,37.75
2023-01-12T02:47:56.646Z,38.85
2023-01-12T02:51:14.482Z,38.92
2023-01-12T02:54:19.073Z,40.03
2023-01-12T02:57:22.896Z,39.10
2023-01-12T03:00:26.079Z,40.60
2023-01-12T03:03:28.340Z,41.65
2023-01-12T03:06:57.068Z,40.95
2023-01-12T03:10:18.274Z,40.90
2023-01-12T03:13:20.763Z,40.73
2023-01-12T03:16:24.799Z,37.88
2023-01-12T03:19:31.785Z,39.00
2023-01-12T03:22:36.564Z,38.60
2023-01-12T03:25:40.152Z,38.03
2023-01-12T03:28:45.706Z,39.20
2023-01-12T03:31:48.205Z,41.03
2023-01-12T03:34:50.486Z,42.58
2023-01-12T03:38:12.979Z,43.55
2023-01-12T03:41:25.920Z,44.35
2023-01-12T03:44:40.364Z,42.53
2023-01-12T03:47:43.611Z,42.70
2023-01-12T03:50:52.018Z,43.15
2023-01-12T03:53:55.208Z,43.25
2023-01-12T03:56:58.431Z,46.80
2023-01-12T04:00:01.092Z,44.73
2023-01-12T04:03:04.471Z,45.20
2023-01-12T04:06:08.399Z,43.67
2023-01-12T04:09:10.680Z,42.78
2023-01-12T04:12:13.342Z,41.10
2023-01-12T04:15:15.621Z,42.50
2023-01-12T04:18:17.860Z,41.65
2023-01-12T04:21:38.811Z,41.33
2023-01-12T04:24:41.150Z,43.63
2023-01-12T04:27:53.905Z,42.10
2023-01-12T04:30:56.530Z,41.63
2023-01-12T04:33:58.834Z,39.85
2023-01-12T04:37:02.585Z,41.60
2023-01-12T04:40:05.494Z,41.50
2023-01-12T04:43:10.023Z,42.75
2023-01-12T04:46:12.304Z,40.17
2023-01-12T04:49:14.561Z,40.00
2023-01-12T04:52:16.738Z,39.15
2023-01-12T04:55:19.358Z,38.33
2023-01-12T04:58:21.939Z,40.03
2023-01-12T05:01:24.338Z,38.63
2023-01-12T05:04:26.848Z,40.00
2023-01-12T05:07:29.185Z,39.97
2023-01-12T05:10:31.468Z,40.70
2023-01-12T05:13:33.714Z,40.72
2023-01-12T05:16:36.024Z,39.87
2023-01-12T05:19:38.284Z,37.60
2023-01-12T05:22:40.575Z,37.78
2023-01-12T05:25:43.184Z,39.42
2023-01-12T05:28:47.543Z,40.75
2023-01-12T05:31:50.189Z,38.33
2023-01-12T05:34:52.455Z,39.90
2023-01-12T05:37:55.668Z,39.28
2023-01-12T05:41:01.596Z,38.33
2023-01-12T05:44:03.885Z,39.35
2023-01-12T05:47:06.067Z,36.77
2023-01-12T05:50:08.677Z,37.25
2023-01-12T05:53:11.256Z,38.75
2023-01-12T05:56:16.443Z,38.47
2023-01-12T05:59:18.770Z,38.25
2023-01-12T06:02:21.714Z,39.87
2023-01-12T06:05:24.031Z,39.95
2023-01-12T06:08:26.326Z,39.53
2023-01-12T06:11:47.347Z,38.58
2023-01-12T06:14:49.587Z,38.35
2023-01-12T06:17:51.806Z,38.53
2023-01-12T06:20:54.088Z,39.75
2023-01-12T06:23:56.640Z,37.47
2023-01-12T06:26:59.212Z,38.10
2023-01-12T06:30:01.674Z,37.45
2023-01-12T06:33:04.180Z,36.13
2023-01-12T06:36:07.860Z,39.10
2023-01-12T06:39:11.699Z,38.33
2023-01-12T06:42:29.242Z,43.42
2023-01-12T06:45:31.669Z,39.38
2023-01-12T06:48:39.601Z,35.27
2023-01-12T06:51:44.761Z,36.40
2023-01-12T06:54:49.808Z,34.47
2023-01-12T06:57:52.797Z,33.75
2023-01-12T07:01:00.601Z,33.40
2023-01-12T07:04:06.245Z,32.33
2023-01-12T07:07:09.317Z,32.17
2023-01-12T07:10:12.449Z,37.08
2023-01-12T07:13:16.736Z,35.83
2023-01-12T07:16:21.125Z,31.52
2023-01-12T07:19:23.598Z,29.83
2023-01-12T07:22:27.131Z,26.67
2023-01-12T07:25:30.089Z,25.13
2023-01-12T07:28:33.878Z,25.58
2023-01-12T07:31:36.412Z,23.05
2023-01-12T07:34:38.733Z,22.50
2023-01-12T07:37:46.815Z,21.83
2023-01-12T07:40:49.096Z,22.67
2023-01-12T07:43:51.391Z,22.48
2023-01-12T07:46:56.312Z,23.00
2023-01-12T07:50:03.489Z,23.80
2023-01-12T07:53:06.024Z,23.77
2023-01-12T07:56:10.327Z,24.20
2023-01-12T07:59:13.139Z,23.83
2023-01-12T08:02:19.403Z,24.42
2023-01-12T08:05:22.645Z,22.80
2023-01-12T08:08:27.219Z,22.70
2023-01-12T08:11:30.639Z,27.55
2023-01-12T08:14:37.748Z,25.73
2023-01-12T08:17:43.050Z,23.00
2023-01-12T08:20:45.582Z,20.87
2023-01-12T08:23:50.294Z,20.42
2023-01-12T08:26:53.803Z,19.77
